Time;durP1;ratioP1;P1;durP2;ratioP2;P2;SDS_P1;SDS_P2;PMS_P1;PMS_P2;Temp;Humidity;BMP_temperature;BMP_pressure;BME280_temperature;BME280_humidity;BME280_pressure;Samples;Min_cycle;Max_cycle;Signal;HPM_P1;HPM_P2
2023/05/14 00:02:14;;;;;;;11.80;10.67;;;12.20;99.90;;;;;;4975736;28;20169;-76
2023/05/14 00:04:39;;;;;;;12.70;11.50;;;12.20;99.90;;;;;;4975668;28;20637;-76
2023/05/14 00:07:05;;;;;;;11.40;10.50;;;12.20;99.90;;;;;;4976044;28;20180;-76
2023/05/14 00:09:31;;;;;;;12.37;11.27;;;12.20;99.90;;;;;;4975615;28;20239;-76
2023/05/14 00:11:57;;;;;;;11.93;10.73;;;12.30;99.90;;;;;;4975869;28;20541;-77
2023/05/14 00:14:22;;;;;;;12.63;11.43;;;12.30;99.90;;;;;;4975508;28;20459;-77
2023/05/14 00:16:49;;;;;;;11.60;10.50;;;12.30;99.90;;;;;;4975268;28;20179;-77
2023/05/14 00:19:14;;;;;;;12.27;11.20;;;12.20;99.90;;;;;;4964117;28;20608;-76
2023/05/14 00:21:40;;;;;;;13.03;11.83;;;12.20;99.90;;;;;;4973940;28;20423;-77
2023/05/14 00:24:05;;;;;;;11.67;10.67;;;12.30;99.90;;;;;;4970789;28;20180;-77
2023/05/14 00:26:31;;;;;;;11.93;10.83;;;12.20;99.90;;;;;;4985860;28;20180;-77
2023/05/14 00:28:56;;;;;;;12.67;11.47;;;12.30;99.90;;;;;;4987709;28;20192;-77
2023/05/14 00:31:22;;;;;;;13.10;11.90;;;12.30;99.90;;;;;;4975397;28;20524;-77
2023/05/14 00:33:47;;;;;;;12.57;11.40;;;12.30;99.90;;;;;;4975142;28;20172;-77
2023/05/14 00:36:13;;;;;;;12.80;11.70;;;12.30;99.90;;;;;;4975210;28;20267;-77
2023/05/14 00:38:38;;;;;;;12.83;11.53;;;12.30;99.90;;;;;;4975127;28;20199;-77
2023/05/14 00:41:04;;;;;;;11.10;10.10;;;12.30;99.90;;;;;;4969603;28;20172;-77
2023/05/14 00:43:30;;;;;;;13.23;12.17;;;12.20;99.90;;;;;;4974989;28;20183;-77
2023/05/14 00:45:56;;;;;;;11.60;10.70;;;12.10;99.90;;;;;;4974196;28;20181;-77
2023/05/14 00:48:23;;;;;;;13.80;12.43;;;12.10;99.90;;;;;;4967395;28;20452;-76
2023/05/14 00:50:49;;;;;;;13.97;12.50;;;12.10;99.90;;;;;;4963043;28;20192;-76
2023/05/14 00:53:15;;;;;;;12.00;10.90;;;12.10;99.90;;;;;;4956089;29;20432;-76
2023/05/14 00:55:42;;;;;;;12.23;11.07;;;12.10;99.90;;;;;;4959340;28;20980;-77
2023/05/14 00:58:12;;;;;;;11.67;10.67;;;12.10;99.90;;;;;;4975002;28;20416;-77
2023/05/14 01:00:38;;;;;;;13.73;12.53;;;12.10;99.90;;;;;;4971370;28;20427;-77
2023/05/14 01:03:06;;;;;;;11.47;10.47;;;12.10;99.90;;;;;;4955479;29;20464;-76
2023/05/14 01:05:59;;;;;;;13.20;12.00;;;12.10;99.90;;;;;;4968652;28;20431;-76
2023/05/14 01:08:46;;;;;;;12.50;11.20;;;12.10;99.90;;;;;;4965001;28;20992;-77
2023/05/14 01:11:33;;;;;;;12.97;11.77;;;12.10;99.90;;;;;;4974990;28;20419;-77
2023/05/14 01:14:13;;;;;;;12.67;11.37;;;12.10;99.90;;;;;;4955192;29;20420;-77
2023/05/14 01:16:39;;;;;;;12.37;11.27;;;12.10;99.90;;;;;;4959491;28;20945;-77
2023/05/14 01:19:16;;;;;;;11.43;10.47;;;12.10;99.90;;;;;;4974046;28;20474;-76
2023/05/14 01:21:44;;;;;;;12.13;11.03;;;12.00;99.90;;;;;;4969815;28;20421;-76
2023/05/14 01:24:10;;;;;;;12.87;11.67;;;12.00;99.90;;;;;;4974229;28;20427;-76
2023/05/14 01:26:35;;;;;;;14.13;12.73;;;11.90;99.90;;;;;;4974350;28;20541;-76
2023/05/14 01:29:28;;;;;;;12.20;11.20;;;11.90;99.90;;;;;;4974101;28;20227;-76
2023/05/14 01:31:56;;;;;;;11.77;10.70;;;11.90;99.90;;;;;;4973037;28;20196;-76
2023/05/14 01:34:24;;;;;;;13.73;12.50;;;11.70;99.90;;;;;;4971672;28;20969;-76
2023/05/14 01:36:52;;;;;;;12.80;11.63;;;11.60;99.90;;;;;;4956815;28;20479;-77
2023/05/14 01:39:18;;;;;;;13.50;12.30;;;11.50;99.90;;;;;;4973654;28;20455;-76
2023/05/14 01:41:45;;;;;;;14.40;13.10;;;11.40;99.90;;;;;;4974077;28;20423;-76
2023/05/14 01:44:11;;;;;;;13.00;11.87;;;11.30;99.90;;;;;;4973649;28;20431;-76
2023/05/14 01:46:37;;;;;;;16.70;15.10;;;11.30;99.90;;;;;;4973676;28;20435;-76
2023/05/14 01:49:02;;;;;;;17.10;15.30;;;11.20;99.90;;;;;;4973553;28;20451;-76
2023/05/14 01:51:28;;;;;;;15.67;13.97;;;11.20;99.90;;;;;;4974701;28;20172;-76
2023/05/14 01:53:54;;;;;;;13.37;12.13;;;11.30;99.90;;;;;;4973658;28;20176;-76
2023/05/14 01:56:22;;;;;;;13.60;12.37;;;11.30;99.90;;;;;;4973697;28;20208;-76
2023/05/14 01:58:48;;;;;;;13.17;11.97;;;11.20;99.90;;;;;;4973562;28;20200;-76
2023/05/14 02:01:13;;;;;;;11.70;10.70;;;11.10;99.90;;;;;;4973342;28;20497;-76
2023/05/14 02:03:39;;;;;;;11.97;10.87;;;11.00;99.90;;;;;;4973135;28;20180;-76
2023/05/14 02:06:04;;;;;;;13.10;11.80;;;10.90;99.90;;;;;;4967857;28;20177;-76
2023/05/14 02:08:30;;;;;;;13.63;12.23;;;10.80;99.90;;;;;;4973424;28;20192;-76
2023/05/14 02:10:55;;;;;;;11.73;10.53;;;10.80;99.90;;;;;;4973477;28;20180;-76
2023/05/14 02:13:21;;;;;;;13.20;11.90;;;10.80;99.90;;;;;;4959549;28;20558;-76
2023/05/14 02:15:46;;;;;;;13.67;12.43;;;10.80;99.90;;;;;;4966587;28;20196;-76
2023/05/14 02:18:12;;;;;;;12.50;11.40;;;10.70;99.90;;;;;;4965890;28;20185;-76
2023/05/14 02:20:38;;;;;;;12.73;11.00;;;10.70;99.90;;;;;;4969754;28;20176;-76
2023/05/14 02:23:03;;;;;;;12.37;11.10;;;10.70;99.90;;;;;;4973073;28;20539;-76
2023/05/14 02:25:29;;;;;;;11.77;10.67;;;10.70;99.90;;;;;;4969704;28;20264;-76
2023/05/14 02:27:54;;;;;;;13.40;12.10;;;10.70;99.90;;;;;;4973202;28;20557;-76
2023/05/14 02:30:21;;;;;;;14.33;12.97;;;10.60;99.90;;;;;;4973040;28;20199;-76
2023/05/14 02:32:46;;;;;;;12.20;11.10;;;10.70;99.90;;;;;;4973156;28;20264;-76
2023/05/14 02:35:12;;;;;;;14.33;13.03;;;10.70;99.90;;;;;;4971149;28;20550;-76
2023/05/14 02:37:37;;;;;;;14.93;13.43;;;10.80;99.90;;;;;;4965040;28;20203;-76
2023/05/14 02:40:03;;;;;;;13.63;12.23;;;10.80;99.90;;;;;;4967569;28;20267;-76
2023/05/14 02:42:29;;;;;;;13.90;12.60;;;10.80;99.90;;;;;;4971388;28;20215;-76
2023/05/14 02:44:54;;;;;;;13.37;11.97;;;11.00;99.90;;;;;;4972909;28;20495;-76
2023/05/14 02:47:20;;;;;;;13.27;12.07;;;11.00;99.90;;;;;;4973307;28;20180;-76
2023/05/14 02:49:45;;;;;;;14.00;12.70;;;11.10;99.90;;;;;;4969728;28;20196;-76
2023/05/14 02:52:11;;;;;;;13.20;11.90;;;11.00;99.90;;;;;;4982602;28;20206;-76
2023/05/14 02:54:36;;;;;;;14.33;13.00;;;11.00;99.90;;;;;;4963599;28;20211;-76
2023/05/14 02:57:02;;;;;;;14.33;13.03;;;11.00;99.90;;;;;;4972594;28;20637;-76
2023/05/14 02:59:30;;;;;;;14.40;13.17;;;11.00;99.90;;;;;;4961277;28;20236;-76
2023/05/14 03:01:55;;;;;;;14.10;12.90;;;11.00;99.90;;;;;;4972173;28;20213;-76
2023/05/14 03:04:21;;;;;;;14.17;12.87;;;11.00;99.90;;;;;;4962144;28;20467;-76
2023/05/14 03:06:46;;;;;;;14.30;13.00;;;11.10;99.90;;;;;;4972690;28;20179;-76
2023/05/14 03:09:13;;;;;;;15.57;14.17;;;11.00;99.90;;;;;;4973373;28;20208;-76
2023/05/14 03:11:38;;;;;;;15.00;13.50;;;11.10;99.90;;;;;;4974525;28;20176;-76
2023/05/14 03:14:04;;;;;;;14.80;13.40;;;11.20;99.90;;;;;;4969870;28;20853;-76
2023/05/14 03:16:29;;;;;;;14.50;13.07;;;11.20;99.90;;;;;;4978554;28;20176;-76
2023/05/14 03:18:55;;;;;;;13.93;12.63;;;11.20;99.90;;;;;;4985349;28;20213;-76
2023/05/14 03:21:20;;;;;;;12.83;11.73;;;11.30;99.90;;;;;;4976822;28;20226;-76
2023/05/14 03:23:46;;;;;;;12.80;11.60;;;11.40;99.90;;;;;;4967962;28;20178;-76
2023/05/14 03:26:11;;;;;;;13.87;12.47;;;11.30;99.90;;;;;;4970041;28;20179;-76
2023/05/14 03:28:37;;;;;;;15.33;13.93;;;11.20;99.90;;;;;;4975374;28;20298;-76
2023/05/14 03:31:02;;;;;;;13.80;12.40;;;11.10;99.90;;;;;;4968066;28;20223;-76
2023/05/14 03:33:28;;;;;;;16.03;14.33;;;11.10;99.90;;;;;;4976039;28;20219;-76
2023/05/14 03:35:53;;;;;;;15.13;13.63;;;11.00;99.90;;;;;;4975729;28;20262;-76
2023/05/14 03:38:19;;;;;;;15.10;13.60;;;11.00;99.90;;;;;;4971730;28;20200;-76
2023/05/14 03:40:45;;;;;;;13.53;12.43;;;10.90;99.90;;;;;;4975793;28;20204;-76
2023/05/14 03:43:10;;;;;;;15.57;14.07;;;11.00;99.90;;;;;;4964086;28;20195;-76
2023/05/14 03:45:36;;;;;;;15.00;13.70;;;11.00;99.90;;;;;;4975466;28;20553;-76
2023/05/14 03:48:01;;;;;;;13.13;11.93;;;11.10;99.90;;;;;;4973728;28;20176;-76
2023/05/14 03:50:27;;;;;;;15.13;13.73;;;11.10;99.90;;;;;;4974696;28;20265;-76
2023/05/14 03:52:53;;;;;;;17.00;14.20;;;11.10;99.90;;;;;;4974505;28;20207;-76
2023/05/14 03:55:19;;;;;;;16.90;15.13;;;11.10;99.90;;;;;;4975519;28;20247;-76
2023/05/14 03:57:45;;;;;;;13.93;12.73;;;11.20;99.90;;;;;;4964823;28;20534;-76
2023/05/14 04:00:11;;;;;;;15.17;13.80;;;11.20;99.90;;;;;;4977397;28;20459;-76
2023/05/14 04:02:36;;;;;;;14.40;13.20;;;11.30;99.90;;;;;;4975106;28;20259;-76
2023/05/14 04:05:03;;;;;;;15.33;13.97;;;11.30;99.90;;;;;;4982282;28;21016;-76
2023/05/14 04:07:28;;;;;;;17.17;13.13;;;11.30;99.90;;;;;;4974827;28;20180;-76
2023/05/14 04:09:54;;;;;;;13.43;12.10;;;11.30;99.90;;;;;;4973116;28;20447;-76
2023/05/14 04:12:19;;;;;;;13.57;12.33;;;11.30;99.90;;;;;;4961673;28;20198;-76
2023/05/14 04:14:45;;;;;;;14.67;13.33;;;11.30;99.90;;;;;;4970085;28;20688;-76
2023/05/14 04:17:10;;;;;;;13.80;12.60;;;11.30;99.90;;;;;;4975139;28;20184;-76
2023/05/14 04:19:36;;;;;;;16.23;14.63;;;11.30;99.90;;;;;;4974144;28;20227;-76
2023/05/14 04:22:01;;;;;;;14.90;13.60;;;11.30;99.90;;;;;;4982861;28;20173;-77
2023/05/14 04:24:27;;;;;;;15.47;13.97;;;11.30;99.90;;;;;;4975207;28;20169;-76
2023/05/14 04:26:52;;;;;;;15.57;14.17;;;11.30;99.90;;;;;;4975179;28;20184;-76
2023/05/14 04:29:18;;;;;;;15.37;13.73;;;11.40;99.90;;;;;;4973846;28;20196;-76
2023/05/14 04:31:43;;;;;;;15.10;13.70;;;11.50;99.90;;;;;;4956362;28;20185;-77
2023/05/14 04:34:09;;;;;;;14.87;13.60;;;11.50;99.90;;;;;;4968272;28;20647;-76
2023/05/14 04:36:35;;;;;;;15.97;14.50;;;11.50;99.90;;;;;;4977773;28;20181;-76
2023/05/14 04:39:00;;;;;;;14.60;13.20;;;11.50;99.90;;;;;;4974738;28;20210;-76
2023/05/14 04:41:26;;;;;;;15.13;13.67;;;11.50;99.90;;;;;;4977822;28;20180;-76
2023/05/14 04:43:55;;;;;;;14.23;12.90;;;11.50;99.90;;;;;;4974646;28;20583;-76
2023/05/14 04:46:21;;;;;;;14.50;13.00;;;11.50;99.90;;;;;;4982063;28;20248;-76
2023/05/14 04:48:47;;;;;;;14.47;13.27;;;11.60;99.90;;;;;;4970220;28;20511;-76
2023/05/14 04:51:13;;;;;;;14.50;13.13;;;11.50;99.90;;;;;;4971172;28;20808;-76
2023/05/14 04:53:38;;;;;;;14.30;12.50;;;11.60;99.90;;;;;;4976261;28;20439;-76
2023/05/14 04:56:04;;;;;;;14.17;12.73;;;11.60;99.90;;;;;;4973886;28;20455;-77
2023/05/14 04:58:31;;;;;;;14.53;13.23;;;11.60;99.90;;;;;;4974780;28;20683;-77
2023/05/14 05:00:57;;;;;;;14.10;12.83;;;11.60;99.90;;;;;;4971160;28;20626;-76
2023/05/14 05:03:22;;;;;;;14.40;13.07;;;11.70;99.90;;;;;;4974301;28;20523;-76
2023/05/14 05:05:48;;;;;;;13.33;12.03;;;11.70;99.90;;;;;;4976661;28;20183;-76
2023/05/14 05:08:13;;;;;;;15.00;13.70;;;11.70;99.90;;;;;;4974297;28;20188;-76
2023/05/14 05:10:39;;;;;;;14.30;12.80;;;11.60;99.90;;;;;;4966058;28;20191;-77
2023/05/14 05:13:04;;;;;;;14.70;12.93;;;11.60;99.90;;;;;;4962145;28;20558;-76
2023/05/14 05:15:30;;;;;;;13.80;12.57;;;11.70;99.90;;;;;;4973958;28;20200;-77
2023/05/14 05:17:55;;;;;;;14.87;13.13;;;11.70;99.90;;;;;;4974339;28;20187;-77
2023/05/14 05:20:22;;;;;;;14.13;12.73;;;11.70;99.90;;;;;;4975726;28;20212;-77
2023/05/14 05:22:47;;;;;;;14.83;12.67;;;11.70;99.90;;;;;;4977143;28;20173;-77
2023/05/14 05:25:13;;;;;;;12.70;11.60;;;11.70;99.90;;;;;;4980736;28;20450;-78
2023/05/14 05:27:38;;;;;;;14.87;13.37;;;11.80;99.90;;;;;;4974290;28;20180;-78
2023/05/14 05:30:05;;;;;;;14.13;12.83;;;11.80;99.90;;;;;;4973357;28;20203;-78
2023/05/14 05:32:30;;;;;;;13.60;12.30;;;11.80;99.90;;;;;;4973890;28;20192;-77
2023/05/14 05:34:56;;;;;;;13.13;11.53;;;11.80;99.90;;;;;;4972501;28;20463;-77
2023/05/14 05:37:21;;;;;;;13.50;12.10;;;11.90;99.90;;;;;;4970842;28;20239;-77
2023/05/14 05:39:47;;;;;;;11.60;10.50;;;12.00;99.90;;;;;;4967708;28;20196;-77
2023/05/14 05:42:13;;;;;;;13.40;12.27;;;12.00;99.90;;;;;;4970535;28;20668;-77
2023/05/14 05:44:38;;;;;;;12.97;11.60;;;12.10;99.90;;;;;;4965317;28;20184;-77
2023/05/14 05:47:04;;;;;;;13.43;12.23;;;12.10;99.90;;;;;;4973959;28;20773;-78
2023/05/14 05:49:30;;;;;;;13.20;11.97;;;12.20;99.90;;;;;;4972565;28;20212;-77
2023/05/14 05:51:56;;;;;;;12.83;11.73;;;12.30;99.90;;;;;;4973328;28;20482;-76
2023/05/14 05:54:23;;;;;;;12.80;11.63;;;12.20;99.90;;;;;;4973561;28;20849;-77
2023/05/14 05:56:49;;;;;;;15.47;13.97;;;12.10;99.90;;;;;;4973467;28;20490;-78
2023/05/14 05:59:14;;;;;;;14.67;13.27;;;12.10;99.90;;;;;;4971428;28;20459;-77
2023/05/14 06:01:42;;;;;;;13.13;12.03;;;12.10;99.90;;;;;;4973767;28;20184;-77
2023/05/14 06:04:08;;;;;;;13.13;11.83;;;12.10;99.90;;;;;;4973232;28;20231;-77
2023/05/14 06:06:33;;;;;;;13.60;12.03;;;12.20;99.90;;;;;;4973824;28;20447;-77
2023/05/14 06:09:00;;;;;;;13.13;11.97;;;12.40;99.90;;;;;;4983427;28;20447;-77
2023/05/14 06:11:26;;;;;;;13.70;12.50;;;12.50;99.90;;;;;;4971754;28;20191;-77
2023/05/14 06:13:52;;;;;;;14.87;12.70;;;12.50;99.90;;;;;;4973381;28;20815;-77
2023/05/14 06:16:17;;;;;;;13.00;11.90;;;12.60;99.90;;;;;;4972849;28;20211;-78
2023/05/14 06:18:43;;;;;;;15.13;13.80;;;12.70;99.90;;;;;;4973314;28;20295;-77
2023/05/14 06:21:08;;;;;;;13.67;12.47;;;12.70;99.90;;;;;;4980654;28;20194;-77
2023/05/14 06:23:34;;;;;;;13.30;12.10;;;12.80;99.90;;;;;;4978657;28;20188;-78
2023/05/14 06:25:59;;;;;;;12.67;11.67;;;12.80;99.90;;;;;;4957749;28;20240;-77
2023/05/14 06:28:25;;;;;;;13.67;12.57;;;12.80;99.90;;;;;;4972901;28;20207;-78
2023/05/14 06:30:52;;;;;;;12.20;11.00;;;12.80;99.90;;;;;;4970927;28;20186;-77
2023/05/14 06:33:20;;;;;;;13.40;12.20;;;12.80;99.90;;;;;;4964571;28;20214;-78
2023/05/14 06:35:45;;;;;;;13.33;12.13;;;12.70;99.90;;;;;;4972190;28;20464;-78
2023/05/14 06:38:11;;;;;;;13.80;12.60;;;12.80;99.90;;;;;;4966686;28;20435;-78
2023/05/14 06:40:36;;;;;;;14.07;12.70;;;12.80;99.90;;;;;;4963050;28;20617;-77
2023/05/14 06:43:02;;;;;;;14.17;12.87;;;12.80;99.90;;;;;;4965211;28;20551;-78
2023/05/14 06:45:28;;;;;;;13.03;11.83;;;12.90;99.90;;;;;;4974051;28;20176;-78
2023/05/14 06:47:54;;;;;;;12.70;11.70;;;13.20;99.90;;;;;;4977827;28;20215;-78
2023/05/14 06:50:19;;;;;;;12.30;11.10;;;13.30;99.90;;;;;;4970739;28;20977;-78
2023/05/14 06:52:45;;;;;;;12.50;11.30;;;13.50;99.90;;;;;;4973499;28;20207;-78
2023/05/14 06:55:11;;;;;;;11.63;10.70;;;13.50;99.90;;;;;;4972541;28;20204;-77
2023/05/14 06:57:37;;;;;;;13.27;12.07;;;13.50;99.90;;;;;;4971208;28;20187;-78
2023/05/14 07:00:03;;;;;;;12.90;11.70;;;13.50;99.90;;;;;;4972636;28;20200;-77
2023/05/14 07:02:29;;;;;;;12.87;11.60;;;13.60;99.90;;;;;;4971875;28;20475;-78
2023/05/14 07:04:54;;;;;;;12.93;11.60;;;13.80;99.90;;;;;;4971970;28;20529;-77
2023/05/14 07:07:20;;;;;;;13.47;12.20;;;14.00;99.90;;;;;;4973127;28;20191;-77
2023/05/14 07:09:46;;;;;;;11.57;10.57;;;14.10;99.90;;;;;;4980525;28;20693;-78
2023/05/14 07:12:11;;;;;;;12.33;11.03;;;14.10;99.90;;;;;;4973337;28;20579;-77
2023/05/14 07:14:37;;;;;;;11.93;10.93;;;14.10;99.90;;;;;;4972540;28;20474;-77
2023/05/14 07:17:03;;;;;;;12.70;11.60;;;14.30;99.90;;;;;;4980370;28;20191;-77
2023/05/14 07:19:29;;;;;;;13.10;11.90;;;14.50;99.90;;;;;;4970610;28;20774;-77
2023/05/14 07:21:55;;;;;;;13.40;12.17;;;14.60;99.90;;;;;;4967660;28;20240;-77
2023/05/14 07:24:20;;;;;;;12.43;11.30;;;14.70;99.90;;;;;;4968597;28;20180;-77
2023/05/14 07:26:46;;;;;;;13.00;11.70;;;14.50;99.90;;;;;;4968149;28;20941;-76
2023/05/14 07:29:11;;;;;;;14.27;13.07;;;14.30;99.90;;;;;;4966016;28;20203;-77
2023/05/14 07:31:37;;;;;;;12.93;11.73;;;14.50;99.90;;;;;;4965639;28;20200;-77
2023/05/14 07:34:02;;;;;;;13.00;11.70;;;14.50;99.90;;;;;;4968056;28;20267;-75
2023/05/14 07:36:28;;;;;;;12.97;11.77;;;14.60;99.90;;;;;;4968815;28;20210;-77
2023/05/14 07:38:54;;;;;;;12.30;11.20;;;14.80;99.90;;;;;;4967920;28;20202;-77
2023/05/14 07:41:19;;;;;;;10.87;9.87;;;15.00;99.90;;;;;;4967176;28;20219;-75
2023/05/14 07:43:45;;;;;;;11.40;10.40;;;15.10;99.90;;;;;;4967085;28;20180;-78
2023/05/14 07:46:10;;;;;;;12.93;11.93;;;15.30;99.90;;;;;;4978702;28;20209;-78
2023/05/14 07:48:36;;;;;;;12.00;11.00;;;15.50;99.90;;;;;;4973075;28;20208;-74
2023/05/14 07:51:01;;;;;;;13.13;11.83;;;15.50;99.90;;;;;;4977414;28;20550;-79
2023/05/14 07:53:27;;;;;;;11.40;10.40;;;15.70;99.90;;;;;;4971052;28;20204;-78
2023/05/14 07:55:53;;;;;;;12.40;11.40;;;15.90;99.90;;;;;;4972988;28;20193;-78
2023/05/14 07:58:19;;;;;;;13.00;11.37;;;16.10;99.90;;;;;;4956977;28;20212;-76
2023/05/14 08:00:44;;;;;;;11.00;10.10;;;16.20;99.90;;;;;;4982172;28;20443;-78
2023/05/14 08:03:10;;;;;;;11.97;10.90;;;16.20;99.90;;;;;;4971765;28;20188;-78
2023/05/14 08:05:35;;;;;;;12.30;11.20;;;16.10;99.90;;;;;;4984354;28;20175;-77
2023/05/14 08:08:01;;;;;;;11.90;10.03;;;16.50;99.90;;;;;;4975415;28;20662;-78
2023/05/14 08:10:27;;;;;;;12.60;11.40;;;16.90;99.90;;;;;;4978512;28;20177;-78
2023/05/14 08:12:52;;;;;;;12.20;11.20;;;17.00;99.90;;;;;;4958504;28;20185;-78
2023/05/14 08:15:18;;;;;;;12.67;11.47;;;16.90;99.90;;;;;;4985080;28;20673;-78
2023/05/14 08:17:43;;;;;;;13.33;12.00;;;17.20;99.90;;;;;;4985444;28;20176;-78
2023/05/14 08:20:10;;;;;;;11.47;10.30;;;17.50;99.90;;;;;;4979360;28;20271;-78
2023/05/14 08:22:36;;;;;;;12.23;11.13;;;17.50;99.90;;;;;;4978963;28;20172;-76
2023/05/14 08:25:02;;;;;;;13.27;11.47;;;17.60;99.90;;;;;;4984576;28;20442;-78
2023/05/14 08:27:28;;;;;;;12.20;11.20;;;17.50;99.90;;;;;;4981790;28;20180;-78
2023/05/14 08:29:53;;;;;;;14.87;13.57;;;17.30;99.90;;;;;;4988074;28;20989;-77
2023/05/14 08:32:19;;;;;;;11.27;10.33;;;17.40;99.90;;;;;;4981819;28;20268;-78
2023/05/14 08:34:45;;;;;;;12.70;11.70;;;17.50;99.90;;;;;;4974306;28;20284;-78
2023/05/14 08:37:10;;;;;;;11.23;10.23;;;17.40;99.90;;;;;;4979150;28;20666;-77
2023/05/14 08:39:36;;;;;;;12.53;11.43;;;16.80;99.90;;;;;;4982772;28;20223;-78
2023/05/14 08:42:05;;;;;;;11.20;10.30;;;16.70;99.90;;;;;;4977919;28;20251;-78
2023/05/14 08:44:38;;;;;;;11.10;10.17;;;17.60;99.90;;;;;;4978327;28;20196;-79
2023/05/14 08:47:04;;;;;;;11.50;10.60;;;18.40;99.90;;;;;;4974755;28;21006;-78
2023/05/14 08:49:40;;;;;;;13.47;9.77;;;18.90;99.90;;;;;;4974149;28;20966;-78
2023/05/14 08:52:07;;;;;;;12.37;11.37;;;19.30;99.90;;;;;;4987328;28;20434;-78
2023/05/14 08:54:32;;;;;;;10.70;9.80;;;19.70;99.90;;;;;;4975677;28;20547;-78
2023/05/14 08:56:58;;;;;;;10.60;9.60;;;19.90;99.90;;;;;;4978670;28;20457;-78
2023/05/14 08:59:24;;;;;;;10.50;9.70;;;20.20;99.90;;;;;;4975123;28;20200;-78
2023/05/14 09:01:52;;;;;;;10.10;9.30;;;20.40;99.90;;;;;;4980903;28;20164;-78
2023/05/14 09:04:23;;;;;;;9.80;8.80;;;20.80;99.90;;;;;;4987203;28;20176;-78
2023/05/14 09:06:50;;;;;;;11.03;10.03;;;21.20;99.90;;;;;;4973145;28;20437;-77
2023/05/14 09:09:16;;;;;;;10.30;9.07;;;21.60;99.90;;;;;;4978862;28;20463;-77
2023/05/14 09:11:45;;;;;;;10.50;9.60;;;21.70;99.90;;;;;;4976120;28;20873;-77
2023/05/14 09:14:10;;;;;;;10.90;10.10;;;21.40;99.90;;;;;;4982529;28;20836;-77
2023/05/14 09:16:37;;;;;;;9.97;8.97;;;21.50;99.90;;;;;;4987649;28;20435;-77
2023/05/14 09:19:04;;;;;;;10.73;9.93;;;21.80;99.90;;;;;;4970561;28;20219;-77
2023/05/14 09:21:30;;;;;;;10.53;9.43;;;22.10;99.90;;;;;;4952650;28;20423;-77
2023/05/14 09:23:56;;;;;;;10.90;10.10;;;22.20;99.90;;;;;;4984973;28;20446;-77
2023/05/14 09:26:26;;;;;;;10.83;9.93;;;22.10;99.90;;;;;;4977626;28;20528;-77
2023/05/14 09:28:56;;;;;;;11.20;10.40;;;22.30;99.90;;;;;;4984284;28;20502;-77
2023/05/14 09:31:22;;;;;;;11.07;10.17;;;22.70;99.90;;;;;;4969592;28;21044;-77
2023/05/14 09:33:51;;;;;;;10.07;9.27;;;23.10;99.90;;;;;;4978394;28;20431;-77
2023/05/14 09:36:17;;;;;;;10.23;9.43;;;23.10;99.90;;;;;;4984008;28;20301;-77
2023/05/14 09:38:43;;;;;;;10.77;9.87;;;23.10;99.90;;;;;;4974571;28;20545;-77
2023/05/14 09:41:09;;;;;;;10.50;9.60;;;22.60;99.90;;;;;;4977118;28;20513;-77
2023/05/14 09:43:34;;;;;;;9.10;8.33;;;22.80;99.90;;;;;;4972767;28;20656;-77
2023/05/14 09:46:00;;;;;;;11.60;10.60;;;22.60;99.90;;;;;;4973617;28;20204;-77
2023/05/14 09:48:28;;;;;;;10.37;9.47;;;22.00;99.90;;;;;;4982578;28;20875;-77
2023/05/14 09:50:54;;;;;;;9.03;8.33;;;22.10;99.90;;;;;;4991293;28;20625;-77
2023/05/14 09:53:19;;;;;;;8.70;8.10;;;22.10;99.90;;;;;;4978067;28;20464;-77
2023/05/14 09:55:45;;;;;;;10.37;9.47;;;22.30;99.90;;;;;;4976972;28;20286;-77
2023/05/14 09:58:13;;;;;;;8.77;8.10;;;21.90;99.90;;;;;;4984021;28;20556;-77
2023/05/14 10:00:42;;;;;;;10.00;9.30;;;21.20;99.90;;;;;;4977139;28;20176;-77
2023/05/14 10:03:11;;;;;;;10.27;9.47;;;21.60;99.90;;;;;;4980324;28;20505;-77
2023/05/14 10:05:40;;;;;;;9.97;9.17;;;21.90;99.90;;;;;;4982332;28;20436;-77
2023/05/14 10:08:25;;;;;;;11.10;10.10;;;22.10;99.90;;;;;;4970564;28;20463;-77
2023/05/14 10:10:57;;;;;;;8.30;7.60;;;22.00;99.90;;;;;;4973916;28;20430;-77
2023/05/14 10:13:31;;;;;;;8.60;8.00;;;21.70;99.90;;;;;;4957016;28;20446;-77
2023/05/14 10:16:05;;;;;;;9.93;9.23;;;21.40;99.90;;;;;;4965972;28;21027;-77
2023/05/14 10:18:38;;;;;;;9.93;9.13;;;21.40;99.90;;;;;;4947123;28;20470;-77
2023/05/14 10:21:06;;;;;;;9.83;8.87;;;21.20;99.90;;;;;;4966397;28;20428;-77
2023/05/14 10:23:33;;;;;;;10.23;9.43;;;21.20;99.90;;;;;;4971094;28;20495;-77
2023/05/14 10:26:00;;;;;;;11.23;10.30;;;21.00;99.90;;;;;;4977646;28;20469;-77
2023/05/14 10:28:26;;;;;;;9.73;8.90;;;21.20;99.90;;;;;;4991594;28;20937;-77
2023/05/14 10:30:53;;;;;;;11.10;10.30;;;21.30;99.90;;;;;;4979754;28;20440;-77
2023/05/14 10:33:18;;;;;;;11.27;10.27;;;21.00;99.90;;;;;;4975288;28;20454;-77
2023/05/14 10:36:03;;;;;;;10.47;9.60;;;21.20;99.90;;;;;;4972287;28;20820;-77
2023/05/14 10:38:32;;;;;;;10.00;9.20;;;21.20;99.90;;;;;;4978687;28;20196;-77
2023/05/14 10:41:00;;;;;;;10.27;9.47;;;21.10;99.90;;;;;;4977171;28;20449;-77
2023/05/14 10:43:28;;;;;;;9.63;8.83;;;21.20;99.90;;;;;;4971702;28;20470;-77
2023/05/14 10:45:54;;;;;;;7.67;7.07;;;22.00;99.90;;;;;;4969285;28;20435;-77
2023/05/14 10:48:20;;;;;;;9.80;9.00;;;22.60;99.90;;;;;;4958526;28;20907;-77
2023/05/14 10:50:48;;;;;;;9.13;8.33;;;22.80;99.30;;;;;;4976007;28;20444;-77
2023/05/14 10:53:14;;;;;;;8.37;7.77;;;23.10;98.70;;;;;;4975857;28;20176;-77
2023/05/14 10:55:42;;;;;;;8.60;7.87;;;23.20;96.60;;;;;;4971544;28;20530;-77
2023/05/14 10:58:11;;;;;;;8.53;7.70;;;23.30;96.00;;;;;;4976734;28;20175;-78
2023/05/14 11:00:37;;;;;;;9.00;8.20;;;23.30;96.40;;;;;;4980928;28;20426;-77
2023/05/14 11:03:05;;;;;;;8.40;7.80;;;23.50;96.20;;;;;;4978527;28;20438;-77
2023/05/14 11:05:31;;;;;;;9.60;8.80;;;23.40;95.40;;;;;;4979539;28;20461;-77
2023/05/14 11:07:57;;;;;;;8.23;7.63;;;23.20;96.30;;;;;;4954849;28;20423;-77
2023/05/14 11:10:24;;;;;;;9.60;8.80;;;23.60;95.70;;;;;;4980311;28;20823;-77
2023/05/14 11:12:51;;;;;;;8.27;7.67;;;23.70;95.20;;;;;;4980358;28;20427;-77
2023/05/14 11:15:19;;;;;;;7.87;7.27;;;26.30;91.80;;;;;;4978536;28;20972;-78
2023/05/14 11:17:45;;;;;;;8.27;7.57;;;29.00;88.30;;;;;;4971772;28;20816;-77
2023/05/14 11:20:12;;;;;;;8.47;7.87;;;30.10;79.50;;;;;;4986015;28;20501;-77
2023/05/14 11:22:39;;;;;;;9.07;8.37;;;30.10;70.30;;;;;;4979825;28;20522;-77
2023/05/14 11:25:06;;;;;;;9.63;8.93;;;28.40;67.10;;;;;;4986524;28;21018;-77
2023/05/14 11:27:34;;;;;;;7.87;7.27;;;27.80;68.10;;;;;;4971399;28;20995;-77
2023/05/14 11:30:00;;;;;;;8.67;7.97;;;27.10;70.40;;;;;;4982977;28;20469;-78
2023/05/14 11:32:26;;;;;;;8.10;7.60;;;26.70;70.80;;;;;;4979432;28;20797;-78
2023/05/14 11:34:51;;;;;;;8.30;7.70;;;28.30;68.20;;;;;;4983748;28;20211;-78
2023/05/14 11:37:17;;;;;;;10.20;9.50;;;29.70;63.20;;;;;;4974524;28;20443;-78
2023/05/14 11:39:54;;;;;;;11.13;10.33;;;29.50;61.80;;;;;;4975556;28;20756;-77
2023/05/14 11:42:24;;;;;;;10.40;9.67;;;28.20;64.20;;;;;;4980551;28;20473;-77
2023/05/14 11:44:51;;;;;;;9.93;9.13;;;26.70;68.80;;;;;;4986722;28;20493;-77
2023/05/14 11:47:18;;;;;;;8.87;8.17;;;25.60;72.20;;;;;;4978591;28;20957;-77
2023/05/14 11:49:44;;;;;;;8.93;8.23;;;25.40;75.60;;;;;;4973358;28;20537;-77
2023/05/14 11:52:14;;;;;;;9.33;8.43;;;26.80;72.10;;;;;;4975461;28;20789;-77
2023/05/14 11:54:42;;;;;;;7.73;7.17;;;28.90;67.20;;;;;;4971901;28;20545;-78
2023/05/14 11:57:10;;;;;;;6.60;6.10;;;31.40;59.90;;;;;;4984034;28;20496;-78
2023/05/14 11:59:36;;;;;;;7.23;6.73;;;32.80;54.30;;;;;;4977811;28;20462;-78
2023/05/14 12:02:04;;;;;;;6.67;6.23;;;34.20;50.90;;;;;;4978823;28;20789;-78
2023/05/14 12:04:30;;;;;;;6.70;6.20;;;33.50;49.70;;;;;;4972196;28;20828;-78
2023/05/14 12:06:58;;;;;;;7.30;6.80;;;32.70;50.30;;;;;;4980222;28;20435;-77
2023/05/14 12:09:24;;;;;;;7.27;6.70;;;31.20;51.30;;;;;;4982201;28;20971;-78
2023/05/14 12:11:50;;;;;;;7.77;7.17;;;28.70;54.00;;;;;;4986499;28;20514;-77
2023/05/14 12:14:21;;;;;;;8.60;8.00;;;27.10;57.90;;;;;;4976147;28;20181;-77
2023/05/14 12:16:47;;;;;;;8.27;7.67;;;25.60;60.10;;;;;;4982564;28;20833;-77
2023/05/14 12:19:14;;;;;;;11.73;10.63;;;24.70;63.50;;;;;;4980368;28;20478;-77
2023/05/14 12:21:42;;;;;;;9.23;8.43;;;23.80;68.70;;;;;;4985930;28;20465;-77
2023/05/14 12:24:13;;;;;;;9.47;8.57;;;23.20;74.60;;;;;;4977464;28;20471;-77
2023/05/14 12:26:42;;;;;;;6.80;6.30;;;22.50;79.80;;;;;;4977462;28;20427;-77
2023/05/14 12:29:11;;;;;;;7.83;7.23;;;22.20;84.70;;;;;;4986048;28;20518;-77